Time;durP1;ratioP1;P1;durP2;ratioP2;P2;SDS_P1;SDS_P2;PMS_P1;PMS_P2;Temp;Humidity;BMP_temperature;BMP_pressure;BME280_temperature;BME280_humidity;BME280_pressure;Samples;Min_cycle;Max_cycle;Signal;HPM_P1;HPM_P2
2023/04/17 00:01:27;;;;;;;75.28;34.83;;;8.80;99.90;;;;;;5013011;28;20040;-72
2023/04/17 00:03:53;;;;;;;73.68;34.38;;;8.80;99.90;;;;;;5012046;28;20053;-73
2023/04/17 00:06:19;;;;;;;80.65;35.40;;;8.70;99.90;;;;;;5013276;28;20476;-73
2023/04/17 00:08:45;;;;;;;74.47;33.67;;;8.80;99.90;;;;;;5012441;28;20029;-73
2023/04/17 00:11:10;;;;;;;72.47;34.60;;;8.80;99.90;;;;;;5012302;28;20049;-73
2023/04/17 00:13:36;;;;;;;79.72;34.95;;;8.80;99.90;;;;;;5012600;28;20114;-73
2023/04/17 00:16:02;;;;;;;81.20;36.53;;;8.80;99.90;;;;;;5012427;28;20140;-73
2023/04/17 00:18:27;;;;;;;73.18;34.63;;;8.80;99.90;;;;;;5012209;28;20029;-72
2023/04/17 00:20:53;;;;;;;78.82;36.55;;;8.90;99.90;;;;;;5005520;28;20041;-73
2023/04/17 00:23:19;;;;;;;83.50;36.38;;;8.90;99.90;;;;;;5007864;28;20026;-72
2023/04/17 00:25:44;;;;;;;71.07;34.83;;;8.90;99.90;;;;;;5008596;28;20386;-72
2023/04/17 00:28:10;;;;;;;83.25;36.03;;;8.90;99.90;;;;;;5010273;28;20058;-72
2023/04/17 00:30:35;;;;;;;65.45;33.42;;;8.90;99.90;;;;;;5011617;28;20496;-72
2023/04/17 00:33:01;;;;;;;76.40;34.50;;;8.90;99.90;;;;;;5008875;28;20239;-72
2023/04/17 00:35:27;;;;;;;68.28;33.17;;;8.90;99.90;;;;;;5011425;28;20310;-73
2023/04/17 00:37:52;;;;;;;75.00;33.58;;;8.90;99.90;;;;;;5012022;28;20408;-73
2023/04/17 00:40:18;;;;;;;82.35;35.17;;;9.00;99.90;;;;;;5004439;28;20034;-73
2023/04/17 00:42:51;;;;;;;69.57;34.53;;;9.00;99.90;;;;;;5030947;28;20285;-73
2023/04/17 00:45:19;;;;;;;75.53;33.45;;;8.90;99.90;;;;;;5016455;28;20395;-73
2023/04/17 00:47:44;;;;;;;72.28;33.50;;;8.90;99.90;;;;;;5013083;28;20034;-72
2023/04/17 00:50:11;;;;;;;78.97;32.85;;;8.90;99.90;;;;;;5012209;28;20080;-73
2023/04/17 00:52:37;;;;;;;66.78;32.67;;;8.90;99.90;;;;;;5012372;28;20034;-72
2023/04/17 00:55:02;;;;;;;65.22;31.48;;;8.90;99.90;;;;;;5011943;28;20022;-72
2023/04/17 00:57:28;;;;;;;61.80;31.33;;;8.90;99.90;;;;;;5012740;28;20033;-72
2023/04/17 00:59:55;;;;;;;63.90;30.20;;;8.90;99.90;;;;;;5012643;28;20017;-72
2023/04/17 01:02:21;;;;;;;68.57;32.28;;;8.90;99.90;;;;;;5011762;28;20022;-72
2023/04/17 01:04:47;;;;;;;59.22;31.33;;;8.90;99.90;;;;;;5001060;28;20084;-72
2023/04/17 01:07:12;;;;;;;57.28;30.92;;;8.90;99.90;;;;;;5007151;28;20037;-72
2023/04/17 01:09:39;;;;;;;58.83;31.40;;;8.90;99.90;;;;;;5002480;28;20507;-73
2023/04/17 01:12:24;;;;;;;63.55;31.33;;;8.90;99.90;;;;;;5011231;28;20034;-72
2023/04/17 01:14:53;;;;;;;60.78;30.50;;;8.90;99.90;;;;;;5007563;28;20026;-71
2023/04/17 01:17:20;;;;;;;59.63;29.10;;;8.80;99.90;;;;;;5012418;28;20029;-72
2023/04/17 01:19:47;;;;;;;62.38;30.65;;;8.90;99.90;;;;;;5011018;28;20117;-72
2023/04/17 01:22:15;;;;;;;59.20;29.23;;;8.90;99.90;;;;;;5010121;28;20485;-73
2023/04/17 01:24:41;;;;;;;61.25;30.27;;;8.90;99.90;;;;;;5010913;28;20033;-73
2023/04/17 01:27:07;;;;;;;53.65;28.35;;;8.90;99.90;;;;;;5008979;28;20042;-73
2023/04/17 01:29:33;;;;;;;59.00;28.67;;;8.80;99.90;;;;;;5006613;28;20053;-72
2023/04/17 01:31:59;;;;;;;58.60;28.02;;;8.80;99.90;;;;;;5011209;28;20034;-71
2023/04/17 01:34:24;;;;;;;58.33;28.08;;;8.80;99.90;;;;;;5011163;28;20033;-72
2023/04/17 01:36:50;;;;;;;56.45;28.83;;;8.80;99.90;;;;;;5010386;28;20507;-73
2023/04/17 01:39:16;;;;;;;55.40;27.88;;;8.70;99.90;;;;;;5005195;28;20041;-73
2023/04/17 01:41:42;;;;;;;59.85;29.33;;;8.70;99.90;;;;;;5005897;28;20018;-73
2023/04/17 01:44:07;;;;;;;60.05;29.70;;;8.70;99.90;;;;;;5001345;28;20029;-73
2023/04/17 01:46:33;;;;;;;58.42;28.83;;;8.60;99.90;;;;;;5011087;28;20092;-73
2023/04/17 01:48:59;;;;;;;61.03;29.10;;;8.60;99.90;;;;;;5011172;28;20022;-72
2023/04/17 01:51:24;;;;;;;65.38;30.55;;;8.60;99.90;;;;;;5011142;28;20469;-72
2023/04/17 01:53:50;;;;;;;67.10;31.40;;;8.60;99.90;;;;;;5010937;28;20026;-71
2023/04/17 01:56:16;;;;;;;69.72;32.97;;;8.60;99.90;;;;;;5012336;28;20440;-72
2023/04/17 01:58:42;;;;;;;66.68;32.63;;;8.60;99.90;;;;;;5015172;28;20050;-72
2023/04/17 02:01:08;;;;;;;67.57;31.60;;;8.60;99.90;;;;;;5011804;28;20503;-72
2023/04/17 02:03:33;;;;;;;66.65;30.80;;;8.60;99.90;;;;;;5029881;28;20034;-72
2023/04/17 02:05:59;;;;;;;62.10;31.70;;;8.50;99.90;;;;;;5015082;28;20030;-72
2023/04/17 02:08:25;;;;;;;56.35;28.35;;;8.50;99.90;;;;;;5014929;28;20010;-72
2023/04/17 02:10:51;;;;;;;59.15;29.45;;;8.50;99.90;;;;;;5014581;28;20108;-72
2023/04/17 02:13:17;;;;;;;56.53;28.33;;;8.50;99.90;;;;;;5014295;28;20423;-73
2023/04/17 02:15:43;;;;;;;61.47;30.13;;;8.50;99.90;;;;;;5012804;28;20022;-73
2023/04/17 02:18:09;;;;;;;64.80;30.63;;;8.50;99.90;;;;;;5013846;28;20109;-73
2023/04/17 02:20:36;;;;;;;62.50;30.63;;;8.50;99.90;;;;;;5008929;28;20030;-73
2023/04/17 02:23:02;;;;;;;58.30;29.55;;;8.40;99.90;;;;;;5013222;28;20029;-71
2023/04/17 02:25:28;;;;;;;63.70;29.98;;;8.40;99.90;;;;;;5008673;28;20080;-72
2023/04/17 02:27:55;;;;;;;59.95;29.33;;;8.40;99.90;;;;;;5012001;28;20536;-72
2023/04/17 02:30:24;;;;;;;61.00;30.20;;;8.30;99.90;;;;;;5011637;28;20393;-72
2023/04/17 02:32:51;;;;;;;59.20;29.63;;;8.30;99.90;;;;;;5009847;28;20052;-72
2023/04/17 02:35:21;;;;;;;58.00;29.05;;;8.30;99.90;;;;;;5010120;28;20021;-72
2023/04/17 02:37:47;;;;;;;60.20;28.90;;;8.30;99.90;;;;;;5008243;28;20359;-72
2023/04/17 02:40:13;;;;;;;55.67;27.40;;;8.20;99.90;;;;;;5002262;28;20070;-72
2023/04/17 02:42:39;;;;;;;60.05;29.08;;;8.20;99.90;;;;;;5008292;28;20404;-72
2023/04/17 02:45:05;;;;;;;57.78;28.83;;;8.20;99.90;;;;;;5010406;28;20019;-73
2023/04/17 02:47:31;;;;;;;61.70;28.80;;;8.20;99.90;;;;;;5009667;28;20109;-73
2023/04/17 02:49:58;;;;;;;61.88;29.95;;;8.20;99.90;;;;;;5013194;28;20104;-73
2023/04/17 02:52:28;;;;;;;61.80;29.10;;;8.10;99.90;;;;;;5014182;28;20550;-73
2023/04/17 02:54:55;;;;;;;60.30;29.58;;;8.20;99.90;;;;;;5008848;28;20022;-73
2023/04/17 02:57:21;;;;;;;65.22;30.55;;;8.20;99.90;;;;;;5010503;28;20026;-72
2023/04/17 02:59:47;;;;;;;64.75;30.30;;;8.10;99.90;;;;;;5014017;28;20022;-73
2023/04/17 03:02:13;;;;;;;67.20;31.83;;;8.10;99.90;;;;;;5009136;28;20022;-72
2023/04/17 03:04:39;;;;;;;64.40;30.23;;;8.10;99.90;;;;;;5010650;28;20125;-72
2023/04/17 03:07:05;;;;;;;69.68;32.60;;;8.10;99.90;;;;;;5013397;28;20101;-73
2023/04/17 03:09:32;;;;;;;68.05;31.10;;;8.10;99.90;;;;;;5009000;28;20282;-73
2023/04/17 03:11:58;;;;;;;64.40;31.80;;;8.10;99.90;;;;;;5011446;28;20026;-73
2023/04/17 03:14:24;;;;;;;63.83;30.45;;;8.10;99.90;;;;;;5008655;28;20635;-73
2023/04/17 03:16:49;;;;;;;67.57;31.67;;;8.10;99.90;;;;;;5009448;28;20037;-73
2023/04/17 03:19:15;;;;;;;64.60;30.95;;;8.00;99.90;;;;;;5011198;28;20061;-73
2023/04/17 03:21:41;;;;;;;59.38;30.17;;;8.00;99.90;;;;;;5009539;28;20476;-73
2023/04/17 03:24:06;;;;;;;65.25;31.10;;;8.00;99.90;;;;;;5013144;28;20100;-73
2023/04/17 03:26:32;;;;;;;63.17;30.48;;;8.10;99.90;;;;;;5012858;28;20030;-72
2023/04/17 03:28:57;;;;;;;66.32;31.17;;;8.10;99.90;;;;;;5012526;28;20017;-72
2023/04/17 03:31:24;;;;;;;64.28;31.80;;;8.20;99.90;;;;;;5012964;28;20018;-72
2023/04/17 03:33:50;;;;;;;66.50;30.98;;;8.20;99.90;;;;;;5002716;28;20026;-72
2023/04/17 03:36:16;;;;;;;67.68;32.05;;;8.20;99.90;;;;;;5012244;28;20038;-71
2023/04/17 03:38:42;;;;;;;65.25;32.13;;;8.20;99.90;;;;;;5009725;28;20060;-73
2023/04/17 03:41:09;;;;;;;70.82;31.42;;;8.20;99.90;;;;;;5011685;28;20022;-73
2023/04/17 03:43:34;;;;;;;68.05;33.42;;;8.20;99.90;;;;;;5012248;28;20034;-72
2023/04/17 03:46:00;;;;;;;67.70;32.63;;;8.30;99.90;;;;;;5006914;28;20041;-72
2023/04/17 03:48:26;;;;;;;72.00;33.15;;;8.30;99.90;;;;;;5009036;28;20022;-72
2023/04/17 03:50:52;;;;;;;68.65;33.25;;;8.30;99.90;;;;;;5001763;28;20053;-72
2023/04/17 03:53:18;;;;;;;66.95;31.95;;;8.30;99.90;;;;;;5009485;28;20025;-73
2023/04/17 03:55:43;;;;;;;63.15;30.23;;;8.30;99.90;;;;;;5008494;28;20053;-72
2023/04/17 03:58:09;;;;;;;62.83;31.42;;;8.30;99.90;;;;;;5012067;28;20057;-72
2023/04/17 04:00:36;;;;;;;63.97;31.08;;;8.30;99.90;;;;;;5009263;28;20393;-73
2023/04/17 04:03:02;;;;;;;63.08;29.80;;;8.30;99.90;;;;;;5008451;28;20021;-71
2023/04/17 04:05:28;;;;;;;57.28;29.65;;;8.30;99.90;;;;;;5010902;28;20046;-71
2023/04/17 04:07:53;;;;;;;60.17;30.77;;;8.30;99.90;;;;;;5013405;28;20030;-72
2023/04/17 04:10:20;;;;;;;64.10;30.67;;;8.30;99.90;;;;;;5013524;28;20463;-71
2023/04/17 04:12:45;;;;;;;55.15;28.58;;;8.30;99.90;;;;;;5013225;28;20029;-72
2023/04/17 04:15:11;;;;;;;56.15;28.65;;;8.30;99.90;;;;;;5013094;28;20380;-71
2023/04/17 04:17:37;;;;;;;58.75;29.67;;;8.20;99.90;;;;;;5011589;28;20026;-72
2023/04/17 04:20:03;;;;;;;56.80;28.13;;;8.30;99.90;;;;;;5010829;28;20082;-72
2023/04/17 04:22:29;;;;;;;51.13;26.58;;;8.30;99.90;;;;;;5011956;28;20034;-72
2023/04/17 04:24:55;;;;;;;51.63;26.95;;;8.30;99.90;;;;;;5012393;28;20026;-71
2023/04/17 04:27:21;;;;;;;51.58;26.92;;;8.20;99.90;;;;;;5012484;28;20492;-72
2023/04/17 04:29:48;;;;;;;51.78;26.92;;;8.30;99.90;;;;;;5009157;28;20473;-71
2023/04/17 04:32:15;;;;;;;50.13;26.80;;;8.20;99.90;;;;;;5012452;28;20063;-73
2023/04/17 04:34:43;;;;;;;51.90;26.48;;;8.20;99.90;;;;;;5015885;28;20038;-72
2023/04/17 04:37:09;;;;;;;54.30;28.33;;;8.20;99.90;;;;;;5013536;28;20014;-71
2023/04/17 04:39:36;;;;;;;53.25;27.27;;;8.30;99.90;;;;;;5012506;28;20515;-72
2023/04/17 04:42:05;;;;;;;62.92;28.85;;;8.30;99.90;;;;;;5011676;28;20020;-72
2023/04/17 04:44:30;;;;;;;53.25;27.85;;;8.30;99.90;;;;;;5011431;28;20026;-72
2023/04/17 04:46:56;;;;;;;56.97;29.45;;;8.30;99.90;;;;;;5011405;28;20037;-73
2023/04/17 04:49:22;;;;;;;63.30;29.77;;;8.30;99.90;;;;;;5011612;28;20029;-74
2023/04/17 04:51:47;;;;;;;58.90;30.85;;;8.30;99.90;;;;;;5010932;28;20026;-72
2023/04/17 04:54:13;;;;;;;64.00;30.55;;;8.30;99.90;;;;;;5011552;28;20101;-71
2023/04/17 04:56:39;;;;;;;69.55;30.85;;;8.30;99.90;;;;;;5026908;28;20030;-72
2023/04/17 04:59:04;;;;;;;65.47;30.58;;;8.30;99.90;;;;;;5011895;28;20033;-72
2023/04/17 05:01:30;;;;;;;65.82;31.73;;;8.30;99.90;;;;;;5012137;28;20511;-72
2023/04/17 05:03:56;;;;;;;66.97;30.42;;;8.30;99.90;;;;;;5010222;28;20135;-72
2023/04/17 05:06:21;;;;;;;66.78;30.63;;;8.30;99.90;;;;;;5010498;28;20026;-72
2023/04/17 05:08:47;;;;;;;71.28;31.25;;;8.30;99.90;;;;;;5009846;28;20111;-72
2023/04/17 05:11:13;;;;;;;68.35;30.65;;;8.30;99.90;;;;;;5010816;28;20438;-72
2023/04/17 05:13:39;;;;;;;66.78;30.20;;;8.30;99.90;;;;;;5010740;28;20064;-73
2023/04/17 05:16:05;;;;;;;67.70;30.20;;;8.30;99.90;;;;;;5010334;28;20025;-73
2023/04/17 05:18:31;;;;;;;73.70;31.10;;;8.30;99.90;;;;;;5002204;28;20053;-73
2023/04/17 05:20:56;;;;;;;66.22;29.20;;;8.30;99.90;;;;;;5010265;28;20093;-72
2023/04/17 05:23:22;;;;;;;69.93;29.90;;;8.30;99.90;;;;;;5010640;28;20119;-72
2023/04/17 05:25:48;;;;;;;68.00;32.38;;;8.40;99.90;;;;;;5005634;28;20038;-72
2023/04/17 05:28:14;;;;;;;66.70;31.20;;;8.40;99.90;;;;;;5010452;28;20022;-72
2023/04/17 05:30:40;;;;;;;66.38;30.98;;;8.40;99.90;;;;;;5008833;28;20108;-72
2023/04/17 05:33:06;;;;;;;61.47;29.67;;;8.40;99.90;;;;;;5009011;28;20056;-72
2023/04/17 05:35:32;;;;;;;66.78;31.58;;;8.50;99.90;;;;;;5012410;28;20350;-71
2023/04/17 05:37:57;;;;;;;67.82;31.88;;;8.50;99.90;;;;;;5012700;28;20097;-73
2023/04/17 05:40:23;;;;;;;61.63;29.95;;;8.50;99.90;;;;;;5007747;28;20060;-73
2023/04/17 05:42:48;;;;;;;63.42;30.13;;;8.50;99.90;;;;;;5011223;28;20473;-72
2023/04/17 05:45:16;;;;;;;70.40;31.38;;;8.50;99.90;;;;;;5011162;28;20026;-71
2023/04/17 05:47:43;;;;;;;63.13;30.08;;;8.60;99.90;;;;;;5001024;28;20547;-71
2023/04/17 05:50:09;;;;;;;63.80;30.38;;;8.60;99.90;;;;;;5010474;28;20334;-72
2023/04/17 05:52:35;;;;;;;63.45;30.48;;;8.60;99.90;;;;;;5011864;28;20368;-71
2023/04/17 05:55:02;;;;;;;60.13;29.83;;;8.60;99.90;;;;;;5011001;28;20421;-71
2023/04/17 05:57:28;;;;;;;64.30;30.17;;;8.60;99.90;;;;;;5010395;28;20424;-72
2023/04/17 05:59:54;;;;;;;60.15;29.67;;;8.70;99.90;;;;;;5009507;28;20045;-72
2023/04/17 06:02:20;;;;;;;58.08;29.60;;;8.70;99.90;;;;;;5009933;28;20057;-72
2023/04/17 06:04:46;;;;;;;62.45;29.23;;;8.70;99.90;;;;;;5011548;28;20264;-72
2023/04/17 06:07:11;;;;;;;59.92;30.13;;;8.70;99.90;;;;;;5010558;28;20076;-71
2023/04/17 06:09:37;;;;;;;56.58;28.88;;;8.70;99.90;;;;;;5011109;28;20120;-71
2023/04/17 06:12:04;;;;;;;61.65;30.10;;;8.70;99.90;;;;;;5008907;28;20357;-72
2023/04/17 06:14:30;;;;;;;62.42;29.23;;;8.70;99.90;;;;;;5011689;28;20493;-71
2023/04/17 06:16:56;;;;;;;57.85;30.02;;;8.80;99.90;;;;;;5010723;28;20038;-71
2023/04/17 06:19:22;;;;;;;58.70;29.60;;;8.70;99.90;;;;;;5010626;28;20097;-71
2023/04/17 06:21:48;;;;;;;56.05;28.52;;;8.70;99.90;;;;;;5010588;28;20026;-72
2023/04/17 06:24:14;;;;;;;55.97;29.50;;;8.80;99.90;;;;;;5010133;28;20018;-72
2023/04/17 06:26:40;;;;;;;57.60;28.42;;;8.80;99.90;;;;;;5009576;28;20116;-71
2023/04/17 06:29:05;;;;;;;51.60;28.45;;;8.80;99.90;;;;;;5009947;28;20022;-72
2023/04/17 06:31:31;;;;;;;51.20;27.75;;;8.90;99.90;;;;;;5010218;28;20029;-72
2023/04/17 06:33:57;;;;;;;49.25;26.63;;;8.90;99.90;;;;;;5011273;28;20382;-72
2023/04/17 06:36:22;;;;;;;50.97;26.98;;;8.90;99.90;;;;;;5011459;28;20026;-72
2023/04/17 06:38:48;;;;;;;49.67;26.85;;;8.90;99.90;;;;;;5007357;28;20033;-73
2023/04/17 06:41:14;;;;;;;52.58;27.30;;;8.90;99.90;;;;;;5007083;28;20076;-72
2023/04/17 06:43:39;;;;;;;52.85;27.63;;;8.90;99.90;;;;;;5012760;28;20136;-72
2023/04/17 06:46:05;;;;;;;48.28;26.10;;;9.00;99.90;;;;;;5012805;28;20025;-71
2023/04/17 06:48:31;;;;;;;49.30;26.92;;;9.00;99.90;;;;;;5009931;28;20025;-72
2023/04/17 06:50:56;;;;;;;52.33;26.60;;;9.00;99.90;;;;;;5011249;28;20317;-72
2023/04/17 06:53:22;;;;;;;45.72;26.45;;;9.00;99.90;;;;;;5011175;28;20103;-72
2023/04/17 06:55:47;;;;;;;45.75;25.27;;;9.00;99.90;;;;;;5009084;28;20499;-72
2023/04/17 06:58:13;;;;;;;46.28;26.52;;;9.10;99.90;;;;;;5011533;28;20109;-73
2023/04/17 07:00:39;;;;;;;54.17;27.75;;;9.10;99.90;;;;;;5011773;28;20234;-72
2023/04/17 07:03:05;;;;;;;52.20;27.77;;;9.10;99.90;;;;;;5010809;28;20377;-72
2023/04/17 07:05:31;;;;;;;52.63;28.30;;;9.10;99.90;;;;;;5013240;28;20073;-72
2023/04/17 07:07:56;;;;;;;53.35;28.77;;;9.20;99.90;;;;;;5012168;28;20092;-72
2023/04/17 07:10:22;;;;;;;54.85;29.05;;;9.20;99.90;;;;;;5011328;28;20038;-72
2023/04/17 07:12:47;;;;;;;56.92;28.10;;;9.20;99.90;;;;;;5013551;28;20532;-72
2023/04/17 07:15:13;;;;;;;49.28;27.83;;;9.20;99.90;;;;;;5012611;28;20037;-72
2023/04/17 07:17:38;;;;;;;48.80;26.58;;;9.20;99.90;;;;;;5012814;28;20029;-72
2023/04/17 07:20:06;;;;;;;45.88;25.92;;;9.30;99.90;;;;;;5012799;28;20068;-72
2023/04/17 07:22:33;;;;;;;48.85;26.42;;;9.20;99.90;;;;;;5009479;28;20421;-71
2023/04/17 07:24:59;;;;;;;46.65;26.48;;;9.20;99.90;;;;;;5013308;28;20364;-72
2023/04/17 07:27:25;;;;;;;44.35;25.20;;;9.30;99.90;;;;;;5013070;28;20030;-71
2023/04/17 07:29:53;;;;;;;48.15;27.05;;;9.30;99.90;;;;;;5006412;28;20038;-71
2023/04/17 07:32:20;;;;;;;47.35;26.67;;;9.40;99.90;;;;;;5011204;28;20449;-71
2023/04/17 07:34:47;;;;;;;50.13;26.50;;;9.40;99.90;;;;;;5012918;28;20035;-72
2023/04/17 07:37:14;;;;;;;46.50;26.08;;;9.50;99.90;;;;;;5013005;28;20349;-72
2023/04/17 07:39:40;;;;;;;49.00;27.67;;;9.50;99.90;;;;;;5012842;28;20019;-72
2023/04/17 07:42:07;;;;;;;48.03;27.48;;;9.60;99.90;;;;;;5011997;28;20026;-72
2023/04/17 07:44:33;;;;;;;52.28;29.23;;;9.60;99.90;;;;;;5012821;28;20019;-72
2023/04/17 07:46:59;;;;;;;52.42;29.10;;;9.70;99.90;;;;;;5012390;28;20069;-72
2023/04/17 07:49:25;;;;;;;55.30;30.33;;;9.70;99.90;;;;;;5012613;28;20042;-72
2023/04/17 07:51:51;;;;;;;54.78;30.88;;;9.80;99.90;;;;;;5011903;28;20092;-72
2023/04/17 07:54:17;;;;;;;53.92;30.65;;;9.80;99.90;;;;;;5011123;28;20024;-72
2023/04/17 07:56:45;;;;;;;56.30;30.45;;;9.80;99.90;;;;;;5012460;28;20072;-72
2023/04/17 07:59:11;;;;;;;55.90;30.73;;;9.80;99.90;;;;;;5013317;28;20006;-72
2023/04/17 08:01:37;;;;;;;52.53;30.15;;;9.80;99.90;;;;;;5012341;28;20025;-72
2023/04/17 08:04:03;;;;;;;60.85;32.95;;;9.80;99.90;;;;;;5012614;28;20025;-71
2023/04/17 08:06:28;;;;;;;53.78;30.73;;;9.80;99.90;;;;;;5011825;28;20033;-72
2023/04/17 08:08:54;;;;;;;57.92;33.22;;;9.80;99.90;;;;;;5012017;28;20021;-71
2023/04/17 08:11:20;;;;;;;61.70;32.65;;;9.80;99.90;;;;;;5011916;28;20403;-72
2023/04/17 08:13:45;;;;;;;58.50;32.00;;;9.80;99.90;;;;;;5011559;28;20227;-72
2023/04/17 08:16:11;;;;;;;57.20;32.33;;;9.90;99.90;;;;;;5012373;28;20025;-72
2023/04/17 08:18:38;;;;;;;56.35;31.52;;;9.90;99.90;;;;;;5012639;28;20530;-72
2023/04/17 08:21:03;;;;;;;46.55;28.63;;;9.90;99.90;;;;;;5012454;28;20026;-72
2023/04/17 08:23:29;;;;;;;48.28;28.65;;;9.90;99.90;;;;;;5012210;28;20029;-72
2023/04/17 08:25:55;;;;;;;48.53;28.55;;;9.90;99.90;;;;;;5011847;28;20076;-72
2023/04/17 08:28:20;;;;;;;42.35;25.13;;;9.90;99.90;;;;;;5014853;28;20125;-72
2023/04/17 08:30:46;;;;;;;51.85;28.00;;;9.90;99.90;;;;;;5015839;28;20040;-72
2023/04/17 08:33:12;;;;;;;46.53;26.63;;;9.90;99.90;;;;;;5013954;28;20018;-72
2023/04/17 08:35:38;;;;;;;55.35;30.08;;;9.90;99.90;;;;;;5011994;28;20030;-72
2023/04/17 08:38:03;;;;;;;51.03;29.13;;;9.90;99.90;;;;;;5011235;28;20017;-72
2023/04/17 08:40:29;;;;;;;49.38;28.35;;;10.00;99.90;;;;;;5011007;28;20021;-72
2023/04/17 08:42:55;;;;;;;50.88;29.10;;;10.00;99.90;;;;;;5011759;28;20021;-72
2023/04/17 08:45:23;;;;;;;49.55;28.75;;;10.00;99.90;;;;;;5009975;28;20022;-72
2023/04/17 08:47:48;;;;;;;52.80;28.75;;;10.10;99.90;;;;;;5011763;28;20519;-71
2023/04/17 08:50:16;;;;;;;52.53;29.05;;;10.10;99.90;;;;;;5011852;28;20025;-73
2023/04/17 08:52:44;;;;;;;50.90;27.95;;;10.20;99.90;;;;;;5011983;28;20030;-71
2023/04/17 08:55:18;;;;;;;49.58;27.33;;;10.20;99.90;;;;;;5009382;28;20018;-71
2023/04/17 08:58:02;;;;;;;52.97;28.63;;;10.20;99.90;;;;;;5012240;28;20058;-71
2023/04/17 09:00:30;;;;;;;51.38;27.92;;;10.30;99.90;;;;;;5011453;28;20136;-71
2023/04/17 09:02:57;;;;;;;50.33;28.02;;;10.30;99.90;;;;;;5011722;28;20030;-72
2023/04/17 09:05:25;;;;;;;47.25;27.63;;;10.30;99.90;;;;;;5011405;28;20025;-71
2023/04/17 09:08:19;;;;;;;47.03;27.33;;;10.40;99.90;;;;;;5011694;28;20030;-72
2023/04/17 09:10:50;;;;;;;48.80;27.73;;;10.50;99.90;;;;;;5001005;28;20085;-72
2023/04/17 09:13:24;;;;;;;48.78;26.27;;;10.50;99.90;;;;;;5010483;28;20038;-72
2023/04/17 09:16:06;;;;;;;46.58;26.38;;;10.60;99.90;;;;;;5011046;28;20049;-71
2023/04/17 09:18:32;;;;;;;47.63;27.15;;;10.60;99.90;;;;;;5011129;28;20032;-72
2023/04/17 09:21:00;;;;;;;48.83;26.55;;;10.60;99.90;;;;;;5011571;28;20049;-71
2023/04/17 09:23:30;;;;;;;48.55;26.70;;;10.70;99.90;;;;;;5011723;28;20049;-72
2023/04/17 09:26:26;;;;;;;50.60;27.50;;;10.70;99.90;;;;;;5010864;28;20062;-72
2023/04/17 09:29:10;;;;;;;49.30;26.85;;;10.70;99.90;;;;;;5014067;28;20037;-74
2023/04/17 09:31:41;;;;;;;47.33;28.20;;;10.80;99.90;;;;;;5010501;28;20382;-72
2023/04/17 09:34:10;;;;;;;49.17;26.73;;;10.90;99.90;;;;;;5010825;28;20104;-72
2023/04/17 09:36:37;;;;;;;45.67;26.05;;;11.00;99.90;;;;;;5008676;28;20025;-71
2023/04/17 09:39:16;;;;;;;43.83;25.63;;;11.10;99.90;;;;;;5011176;28;20049;-71
2023/04/17 09:41:42;;;;;;;47.30;26.73;;;11.20;99.90;;;;;;5011523;28;20057;-72
2023/04/17 09:44:08;;;;;;;48.70;26.70;;;11.30;99.90;;;;;;5006503;28;20065;-72
2023/04/17 09:46:40;;;;;;;48.30;27.77;;;11.40;99.90;;;;;;5012367;28;20377;-72
2023/04/17 09:49:17;;;;;;;45.00;26.02;;;11.50;99.90;;;;;;5012524;28;20487;-72
2023/04/17 09:51:45;;;;;;;47.22;26.52;;;11.60;99.90;;;;;;5012065;28;20673;-72
2023/04/17 09:54:13;;;;;;;47.55;27.00;;;11.70;99.90;;;;;;5010976;28;20054;-72
2023/04/17 09:56:40;;;;;;;51.20;26.70;;;11.80;99.90;;;;;;5009019;28;20062;-72
2023/04/17 09:59:07;;;;;;;48.42;25.70;;;11.80;99.90;;;;;;5011800;28;20037;-72
2023/04/17 10:01:35;;;;;;;39.63;25.55;;;11.80;99.90;;;;;;5004472;28;20528;-72
2023/04/17 10:04:02;;;;;;;44.80;25.08;;;11.80;99.90;;;;;;5011621;28;20049;-72
2023/04/17 10:06:30;;;;;;;44.95;25.70;;;11.80;99.90;;;;;;5011962;28;20032;-73
2023/04/17 10:08:56;;;;;;;43.78;25.08;;;11.90;99.90;;;;;;5011764;28;20033;-72
2023/04/17 10:11:24;;;;;;;43.42;25.10;;;12.00;99.90;;;;;;5012433;28;20539;-72
2023/04/17 10:14:18;;;;;;;44.42;25.38;;;12.10;99.90;;;;;;5006044;28;20109;-72
2023/04/17 10:16:43;;;;;;;45.25;24.85;;;12.20;99.90;;;;;;5009712;28;20038;-72
2023/04/17 10:19:32;;;;;;;44.08;25.25;;;12.40;99.90;;;;;;5016169;28;20092;-72
2023/04/17 10:22:18;;;;;;;35.53;22.60;;;12.60;99.90;;;;;;5014306;28;20026;-72
2023/04/17 10:24:50;;;;;;;41.38;24.10;;;12.70;99.90;;;;;;5015376;28;20060;-72
2023/04/17 10:27:36;;;;;;;39.53;24.13;;;13.00;99.90;;;;;;5013566;28;20092;-72
2023/04/17 10:30:04;;;;;;;42.58;23.40;;;13.00;99.90;;;;;;5011771;28;20038;-73
2023/04/17 10:32:32;;;;;;;40.03;23.88;;;13.00;99.90;;;;;;5015768;28;20403;-72
2023/04/17 10:35:00;;;;;;;36.63;23.65;;;13.00;99.90;;;;;;5015713;28;20475;-72
2023/04/17 10:37:50;;;;;;;37.85;23.63;;;13.00;99.90;;;;;;5025109;28;20461;-71
2023/04/17 10:40:24;;;;;;;37.53;22.52;;;13.00;99.90;;;;;;5015287;28;20065;-73
2023/04/17 10:43:10;;;;;;;36.13;21.73;;;13.10;99.90;;;;;;5010383;28;20492;-72
2023/04/17 10:46:09;;;;;;;34.63;21.83;;;13.10;99.90;;;;;;5015257;28;20025;-72
2023/04/17 10:48:39;;;;;;;34.88;21.40;;;13.30;99.90;;;;;;5011106;28;20030;-72
2023/04/17 10:51:20;;;;;;;36.42;23.27;;;13.40;99.90;;;;;;5015323;28;20378;-72
2023/04/17 10:53:56;;;;;;;36.38;22.70;;;13.60;99.90;;;;;;5015079;28;20505;-72
2023/04/17 10:56:34;;;;;;;35.50;22.95;;;13.70;99.90;;;;;;5015278;28;20026;-73
2023/04/17 10:59:07;;;;;;;37.88;23.27;;;13.70;99.90;;;;;;5014091;28;20057;-72
2023/04/17 11:01:47;;;;;;;39.63;22.80;;;13.80;99.90;;;;;;5015138;28;20393;-72
2023/04/17 11:04:23;;;;;;;36.97;22.50;;;13.80;99.90;;;;;;5003779;28;20057;-73
2023/04/17 11:06:51;;;;;;;34.45;21.25;;;13.80;99.90;;;;;;5015423;28;20022;-72
2023/04/17 11:09:19;;;;;;;34.83;22.02;;;13.90;99.90;;;;;;5014425;28;20558;-72
2023/04/17 11:11:45;;;;;;;34.05;21.75;;;14.10;99.90;;;;;;5016468;28;20038;-72
2023/04/17 11:14:16;;;;;;;34.80;21.13;;;14.20;99.90;;;;;;5015131;28;20026;-72
2023/04/17 11:16:44;;;;;;;34.45;21.42;;;14.40;99.90;;;;;;5000495;28;20446;-72
2023/04/17 11:19:16;;;;;;;33.38;22.08;;;14.50;99.90;;;;;;5014923;28;20025;-72
2023/04/17 11:21:43;;;;;;;29.77;20.23;;;14.50;99.90;;;;;;5014784;28;20409;-72
2023/04/17 11:24:09;;;;;;;32.22;21.65;;;14.50;99.90;;;;;;5015335;28;20026;-72
2023/04/17 11:26:47;;;;;;;33.47;21.75;;;14.30;99.90;;;;;;5014088;28;20053;-72
2023/04/17 11:29:17;;;;;;;30.50;21.02;;;14.30;99.90;;;;;;5014678;28;20100;-72
2023/04/17 11:31:44;;;;;;;32.63;21.15;;;14.40;99.90;;;;;;5014244;28;20029;-72
2023/04/17 11:34:10;;;;;;;32.17;20.58;;;14.50;99.90;;;;;;5008400;28;20010;-72
2023/04/17 11:36:36;;;;;;;28.92;19.27;;;14.60;99.90;;;;;;5014851;28;20030;-72
2023/04/17 11:39:03;;;;;;;29.65;18.92;;;14.80;99.90;;;;;;5008593;28;20030;-71
2023/04/17 11:41:41;;;;;;;28.60;18.83;;;14.90;99.90;;;;;;5007868;28;20105;-72
2023/04/17 11:44:14;;;;;;;30.70;20.98;;;15.10;99.90;;;;;;5010111;28;20014;-72
2023/04/17 11:46:40;;;;;;;30.10;18.90;;;15.30;99.90;;;;;;5013884;28;20100;-71
2023/04/17 11:49:06;;;;;;;29.48;19.23;;;15.40;99.90;;;;;;5014040;28;20022;-71
2023/04/17 11:51:32;;;;;;;32.38;18.90;;;15.50;99.90;;;;;;5014104;28;20080;-71
2023/04/17 11:53:58;;;;;;;29.85;19.23;;;15.70;99.90;;;;;;5014105;28;20018;-71
2023/04/17 11:56:28;;;;;;;28.70;18.58;;;15.80;99.90;;;;;;5014467;28;20030;-71
2023/04/17 11:58:56;;;;;;;29.90;19.27;;;15.90;99.90;;;;;;5014537;28;20710;-72
2023/04/17 12:01:24;;;;;;;27.13;19.10;;;16.10;99.90;;;;;;5014512;28;20556;-70
2023/04/17 12:03:51;;;;;;;27.75;18.33;;;16.20;99.90;;;;;;5014454;28;20345;-73
2023/04/17 12:06:17;;;;;;;31.45;18.48;;;16.40;99.90;;;;;;5013902;28;20033;-72
2023/04/17 12:08:49;;;;;;;23.25;17.08;;;16.50;99.90;;;;;;5014456;28;20022;-72
2023/04/17 12:11:33;;;;;;;22.85;16.92;;;16.50;99.90;;;;;;5013676;28;20080;-72
2023/04/17 12:14:00;;;;;;;25.97;17.30;;;16.40;99.90;;;;;;5005383;28;20093;-72
2023/04/17 12:16:27;;;;;;;25.20;16.05;;;16.40;99.90;;;;;;5015277;28;20021;-72
2023/04/17 12:18:54;;;;;;;27.02;18.95;;;16.50;99.90;;;;;;5015232;28;20022;-72
2023/04/17 12:21:22;;;;;;;26.15;18.35;;;16.60;99.90;;;;;;5014892;28;20425;-73
2023/04/17 12:23:49;;;;;;;25.83;16.88;;;16.60;99.90;;;;;;5014089;28;20030;-72
2023/04/17 12:26:15;;;;;;;27.10;18.17;;;16.70;99.90;;;;;;5016652;28;20037;-72
2023/04/17 12:28:41;;;;;;;25.63;18.55;;;16.80;99.90;;;;;;5016763;28;20168;-72
2023/04/17 12:31:06;;;;;;;25.65;18.08;;;16.80;99.90;;;;;;5015355;28;20604;-71
2023/04/17 12:33:33;;;;;;;23.08;16.08;;;16.80;99.90;;;;;;5013972;28;20129;-72
2023/04/17 12:36:03;;;;;;;21.88;15.45;;;16.80;99.90;;;;;;5014431;28;20033;-71